sensor_id;sensor_type;location;lat;lon;timestamp;pressure;altitude;pressure_sealevel;temperature;humidity
41632;BME280;37452;51.938;4.624;2022-10-16T00:01:24;76491.56;;;-142.75;100.00
41632;BME280;37452;51.938;4.624;2022-10-16T00:03:50;76507.31;;;-142.75;100.00
41632;BME280;37452;51.938;4.624;2022-10-16T00:06:16;76493.53;;;-142.75;100.00
41632;BME280;37452;51.938;4.624;2022-10-16T00:08:41;76499.44;;;-142.75;100.00
41632;BME280;37452;51.938;4.624;2022-10-16T00:11:14;76521.09;;;-142.75;100.00
41632;BME280;37452;51.938;4.624;2022-10-16T00:13:40;76503.38;;;-142.75;100.00
41632;BME280;37452;51.938;4.624;2022-10-16T00:16:06;76515.19;;;-142.75;100.00
41632;BME280;37452;51.938;4.624;2022-10-16T00:18:31;76507.31;;;-142.75;100.00
41632;BME280;37452;51.938;4.624;2022-10-16T00:21:04;76503.38;;;-142.75;100.00
41632;BME280;37452;51.938;4.624;2022-10-16T00:23:29;76503.38;;;-142.75;100.00
41632;BME280;37452;51.938;4.624;2022-10-16T00:25:59;76501.41;;;-142.75;100.00
41632;BME280;37452;51.938;4.624;2022-10-16T00:28:24;76505.34;;;-142.75;100.00
41632;BME280;37452;51.938;4.624;2022-10-16T00:30:50;76503.38;;;-142.75;100.00
41632;BME280;37452;51.938;4.624;2022-10-16T00:33:15;76503.38;;;-142.75;100.00
41632;BME280;37452;51.938;4.624;2022-10-16T00:35:40;76491.56;;;-142.75;100.00
41632;BME280;37452;51.938;4.624;2022-10-16T00:38:06;76499.44;;;-142.75;100.00
41632;BME280;37452;51.938;4.624;2022-10-16T00:40:31;76515.19;;;-142.75;100.00
41632;BME280;37452;51.938;4.624;2022-10-16T00:42:56;76507.31;;;-142.75;100.00
41632;BME280;37452;51.938;4.624;2022-10-16T00:45:21;76513.22;;;-142.75;100.00
41632;BME280;37452;51.938;4.624;2022-10-16T00:47:47;76501.41;;;-142.75;100.00
41632;BME280;37452;51.938;4.624;2022-10-16T00:50:18;76507.31;;;-142.75;100.00
41632;BME280;37452;51.938;4.624;2022-10-16T00:52:47;76509.28;;;-142.75;100.00
41632;BME280;37452;51.938;4.624;2022-10-16T00:55:13;76517.16;;;-142.75;100.00
41632;BME280;37452;51.938;4.624;2022-10-16T00:57:38;76521.09;;;-142.75;100.00
41632;BME280;37452;51.938;4.624;2022-10-16T01:00:05;76546.66;;;-142.75;100.00
41632;BME280;37452;51.938;4.624;2022-10-16T01:02:31;76550.59;;;-142.75;100.00
41632;BME280;37452;51.938;4.624;2022-10-16T01:04:56;76536.84;;;-142.75;100.00
41632;BME280;37452;51.938;4.624;2022-10-16T01:07:29;76546.66;;;-142.75;100.00
41632;BME280;37452;51.938;4.624;2022-10-16T01:12:44;76580.13;;;-142.75;100.00
41632;BME280;37452;51.938;4.624;2022-10-16T01:15:11;76570.28;;;-142.75;100.00
41632;BME280;37452;51.938;4.624;2022-10-16T01:17:48;76586.03;;;-142.75;100.00
41632;BME280;37452;51.938;4.624;2022-10-16T01:25:31;76593.91;;;-142.75;100.00
41632;BME280;37452;51.938;4.624;2022-10-16T01:28:01;76595.88;;;-142.75;100.00
41632;BME280;37452;51.938;4.624;2022-10-16T01:30:28;76586.03;;;-142.75;100.00
41632;BME280;37452;51.938;4.624;2022-10-16T01:35:22;76607.69;;;-142.75;100.00
41632;BME280;37452;51.938;4.624;2022-10-16T01:37:50;76601.78;;;-142.75;100.00
41632;BME280;37452;51.938;4.624;2022-10-16T01:40:17;76593.91;;;-142.75;100.00
41632;BME280;37452;51.938;4.624;2022-10-16T01:42:46;76597.84;;;-142.75;100.00
41632;BME280;37452;51.938;4.624;2022-10-16T01:45:13;76595.88;;;-142.75;100.00
41632;BME280;37452;51.938;4.624;2022-10-16T01:47:40;76609.66;;;-142.75;100.00
41632;BME280;37452;51.938;4.624;2022-10-16T01:50:06;76597.84;;;-142.75;100.00
41632;BME280;37452;51.938;4.624;2022-10-16T01:52:34;76609.66;;;-142.75;100.00
41632;BME280;37452;51.938;4.624;2022-10-16T01:55:00;76609.66;;;-142.75;100.00
41632;BME280;37452;51.938;4.624;2022-10-16T01:57:27;76607.69;;;-142.75;100.00
41632;BME280;37452;51.938;4.624;2022-10-16T01:59:54;76613.59;;;-142.75;100.00
41632;BME280;37452;51.938;4.624;2022-10-16T02:02:21;76617.53;;;-142.75;100.00
41632;BME280;37452;51.938;4.624;2022-10-16T02:04:48;76597.84;;;-142.75;100.00
41632;BME280;37452;51.938;4.624;2022-10-16T02:07:14;76617.53;;;-142.75;100.00
41632;BME280;37452;51.938;4.624;2022-10-16T02:09:40;76619.50;;;-142.75;100.00
41632;BME280;37452;51.938;4.624;2022-10-16T02:12:13;76617.53;;;-142.75;100.00
41632;BME280;37452;51.938;4.624;2022-10-16T02:14:40;76625.41;;;-142.75;100.00
41632;BME280;37452;51.938;4.624;2022-10-16T02:17:12;76609.66;;;-142.75;100.00
41632;BME280;37452;51.938;4.624;2022-10-16T02:19:38;76617.53;;;-142.75;100.00
41632;BME280;37452;51.938;4.624;2022-10-16T02:22:04;76613.59;;;-142.75;100.00
41632;BME280;37452;51.938;4.624;2022-10-16T02:25:04;76625.41;;;-142.75;100.00
41632;BME280;37452;51.938;4.624;2022-10-16T02:29:47;76617.53;;;-142.75;100.00
41632;BME280;37452;51.938;4.624;2022-10-16T02:32:19;76625.41;;;-142.75;100.00
41632;BME280;37452;51.938;4.624;2022-10-16T02:34:46;76621.47;;;-142.75;100.00
41632;BME280;37452;51.938;4.624;2022-10-16T02:37:13;76625.41;;;-142.75;100.00
41632;BME280;37452;51.938;4.624;2022-10-16T02:39:38;76629.34;;;-142.75;100.00
41632;BME280;37452;51.938;4.624;2022-10-16T02:42:09;76613.59;;;-142.75;100.00
41632;BME280;37452;51.938;4.624;2022-10-16T02:44:34;76609.66;;;-142.75;100.00
41632;BME280;37452;51.938;4.624;2022-10-16T02:47:00;76621.47;;;-142.75;100.00
41632;BME280;37452;51.938;4.624;2022-10-16T02:49:25;76611.63;;;-142.75;100.00
41632;BME280;37452;51.938;4.624;2022-10-16T02:51:50;76609.66;;;-142.75;100.00
41632;BME280;37452;51.938;4.624;2022-10-16T02:54:15;76601.78;;;-142.75;100.00
41632;BME280;37452;51.938;4.624;2022-10-16T02:56:40;76591.94;;;-142.75;100.00
41632;BME280;37452;51.938;4.624;2022-10-16T02:59:05;76595.88;;;-142.75;100.00
41632;BME280;37452;51.938;4.624;2022-10-16T03:01:31;76593.91;;;-142.75;100.00
41632;BME280;37452;51.938;4.624;2022-10-16T03:03:56;76584.06;;;-142.75;100.00
41632;BME280;37452;51.938;4.624;2022-10-16T03:06:21;76603.75;;;-142.75;100.00
41632;BME280;37452;51.938;4.624;2022-10-16T03:08:46;76597.84;;;-142.75;100.00
41632;BME280;37452;51.938;4.624;2022-10-16T03:11:11;76613.59;;;-142.75;100.00
41632;BME280;37452;51.938;4.624;2022-10-16T03:13:37;76613.59;;;-142.75;100.00
41632;BME280;37452;51.938;4.624;2022-10-16T03:16:02;76613.59;;;-142.75;100.00
41632;BME280;37452;51.938;4.624;2022-10-16T03:18:27;76609.66;;;-142.75;100.00
41632;BME280;37452;51.938;4.624;2022-10-16T03:20:52;76603.75;;;-142.75;100.00
41632;BME280;37452;51.938;4.624;2022-10-16T03:23:17;76623.44;;;-142.75;100.00
41632;BME280;37452;51.938;4.624;2022-10-16T03:25:42;76623.44;;;-142.75;100.00
41632;BME280;37452;51.938;4.624;2022-10-16T03:28:08;76629.34;;;-142.75;100.00
41632;BME280;37452;51.938;4.624;2022-10-16T03:30:34;76637.22;;;-142.75;100.00
41632;BME280;37452;51.938;4.624;2022-10-16T03:32:59;76639.19;;;-142.75;100.00
41632;BME280;37452;51.938;4.624;2022-10-16T03:35:24;76635.25;;;-142.75;100.00
41632;BME280;37452;51.938;4.624;2022-10-16T03:37:50;76635.25;;;-142.75;100.00
41632;BME280;37452;51.938;4.624;2022-10-16T03:40:15;76625.41;;;-142.75;100.00
41632;BME280;37452;51.938;4.624;2022-10-16T03:42:41;76625.41;;;-142.75;100.00
41632;BME280;37452;51.938;4.624;2022-10-16T03:45:07;76637.22;;;-142.75;100.00
41632;BME280;37452;51.938;4.624;2022-10-16T03:47:32;76635.25;;;-142.75;100.00
41632;BME280;37452;51.938;4.624;2022-10-16T03:49:58;76645.09;;;-142.75;100.00
41632;BME280;37452;51.938;4.624;2022-10-16T03:52:23;76645.09;;;-142.75;100.00
41632;BME280;37452;51.938;4.624;2022-10-16T03:54:49;76649.03;;;-142.75;100.00
41632;BME280;37452;51.938;4.624;2022-10-16T03:57:14;76654.94;;;-142.75;100.00
41632;BME280;37452;51.938;4.624;2022-10-16T03:59:39;76641.16;;;-142.75;100.00
41632;BME280;37452;51.938;4.624;2022-10-16T04:02:04;76649.03;;;-142.75;100.00
41632;BME280;37452;51.938;4.624;2022-10-16T04:04:29;76651.00;;;-142.75;100.00
41632;BME280;37452;51.938;4.624;2022-10-16T04:06:55;76670.69;;;-142.75;100.00
41632;BME280;37452;51.938;4.624;2022-10-16T04:09:20;76662.81;;;-142.75;100.00
41632;BME280;37452;51.938;4.624;2022-10-16T04:11:45;76662.81;;;-142.75;100.00
41632;BME280;37452;51.938;4.624;2022-10-16T04:14:10;76662.81;;;-142.75;100.00
41632;BME280;37452;51.938;4.624;2022-10-16T04:16:35;76666.75;;;-142.75;100.00
41632;BME280;37452;51.938;4.624;2022-10-16T04:19:00;76678.56;;;-142.75;100.00
41632;BME280;37452;51.938;4.624;2022-10-16T04:21:26;76672.66;;;-142.75;100.00
41632;BME280;37452;51.938;4.624;2022-10-16T04:23:51;76668.72;;;-142.75;100.00
41632;BME280;37452;51.938;4.624;2022-10-16T04:26:16;76678.56;;;-142.75;100.00
41632;BME280;37452;51.938;4.624;2022-10-16T04:28:41;76688.41;;;-142.75;100.00
41632;BME280;37452;51.938;4.624;2022-10-16T04:31:07;76684.47;;;-142.75;100.00
41632;BME280;37452;51.938;4.624;2022-10-16T04:33:33;76700.22;;;-142.75;100.00
41632;BME280;37452;51.938;4.624;2022-10-16T04:36:01;76708.09;;;-142.75;100.00
41632;BME280;37452;51.938;4.624;2022-10-16T04:38:27;76708.09;;;-142.75;100.00
41632;BME280;37452;51.938;4.624;2022-10-16T04:40:53;76700.22;;;-142.75;100.00
41632;BME280;37452;51.938;4.624;2022-10-16T04:43:18;76708.09;;;-142.75;100.00
41632;BME280;37452;51.938;4.624;2022-10-16T04:45:43;76714.00;;;-142.75;100.00
41632;BME280;37452;51.938;4.624;2022-10-16T04:48:08;76706.13;;;-142.75;100.00
41632;BME280;37452;51.938;4.624;2022-10-16T04:50:34;76723.84;;;-142.75;100.00
41632;BME280;37452;51.938;4.624;2022-10-16T04:52:59;76712.03;;;-142.75;100.00
41632;BME280;37452;51.938;4.624;2022-10-16T04:55:24;76723.84;;;-142.75;100.00
41632;BME280;37452;51.938;4.624;2022-10-16T04:57:49;76727.78;;;-142.75;100.00
41632;BME280;37452;51.938;4.624;2022-10-16T05:00:14;76719.91;;;-142.75;100.00
41632;BME280;37452;51.938;4.624;2022-10-16T05:02:40;76717.94;;;-142.75;100.00
41632;BME280;37452;51.938;4.624;2022-10-16T05:05:05;76719.91;;;-142.75;100.00
41632;BME280;37452;51.938;4.624;2022-10-16T05:07:30;76715.97;;;-142.75;100.00
41632;BME280;37452;51.938;4.624;2022-10-16T05:09:55;76733.69;;;-142.75;100.00
41632;BME280;37452;51.938;4.624;2022-10-16T05:12:21;76715.97;;;-142.75;100.00
41632;BME280;37452;51.938;4.624;2022-10-16T05:14:46;76714.00;;;-142.75;100.00
41632;BME280;37452;51.938;4.624;2022-10-16T05:17:11;76719.91;;;-142.75;100.00
41632;BME280;37452;51.938;4.624;2022-10-16T05:19:36;76719.91;;;-142.75;100.00
41632;BME280;37452;51.938;4.624;2022-10-16T05:22:02;76704.16;;;-142.75;100.00
41632;BME280;37452;51.938;4.624;2022-10-16T05:24:27;76723.84;;;-142.75;100.00
41632;BME280;37452;51.938;4.624;2022-10-16T05:26:52;76729.75;;;-142.75;100.00
41632;BME280;37452;51.938;4.624;2022-10-16T05:29:19;76727.78;;;-142.75;100.00
41632;BME280;37452;51.938;4.624;2022-10-16T05:31:44;76729.75;;;-142.75;100.00
41632;BME280;37452;51.938;4.624;2022-10-16T05:34:09;76729.75;;;-142.75;100.00
41632;BME280;37452;51.938;4.624;2022-10-16T05:36:35;76727.78;;;-142.75;100.00
41632;BME280;37452;51.938;4.624;2022-10-16T05:39:00;76747.47;;;-142.75;100.00
41632;BME280;37452;51.938;4.624;2022-10-16T05:41:25;76733.69;;;-142.75;100.00
41632;BME280;37452;51.938;4.624;2022-10-16T05:43:51;76747.47;;;-142.75;100.00
41632;BME280;37452;51.938;4.624;2022-10-16T05:46:16;76737.63;;;-142.75;100.00
41632;BME280;37452;51.938;4.624;2022-10-16T05:48:41;76743.53;;;-142.75;100.00
41632;BME280;37452;51.938;4.624;2022-10-16T05:51:07;76743.53;;;-142.75;100.00
41632;BME280;37452;51.938;4.624;2022-10-16T05:53:34;76747.47;;;-142.75;100.00
41632;BME280;37452;51.938;4.624;2022-10-16T05:56:00;76767.16;;;-142.75;100.00
41632;BME280;37452;51.938;4.624;2022-10-16T05:58:28;76763.22;;;-142.75;100.00
41632;BME280;37452;51.938;4.624;2022-10-16T06:00:54;76771.09;;;-142.75;100.00
41632;BME280;37452;51.938;4.624;2022-10-16T06:03:19;76771.09;;;-142.75;100.00
41632;BME280;37452;51.938;4.624;2022-10-16T06:05:45;76771.09;;;-142.75;100.00
41632;BME280;37452;51.938;4.624;2022-10-16T06:08:10;76773.06;;;-142.75;100.00
41632;BME280;37452;51.938;4.624;2022-10-16T06:10:35;76775.03;;;-142.75;100.00
41632;BME280;37452;51.938;4.624;2022-10-16T06:13:00;76763.22;;;-142.75;100.00
41632;BME280;37452;51.938;4.624;2022-10-16T06:15:25;76784.88;;;-142.75;100.00
41632;BME280;37452;51.938;4.624;2022-10-16T06:17:51;76798.66;;;-142.75;100.00
41632;BME280;37452;51.938;4.624;2022-10-16T06:20:16;76790.78;;;-142.75;100.00
41632;BME280;37452;51.938;4.624;2022-10-16T06:22:41;76794.69;;;-142.75;100.00
41632;BME280;37452;51.938;4.624;2022-10-16T06:25:06;76796.69;;;-142.75;100.00
41632;BME280;37452;51.938;4.624;2022-10-16T06:27:31;76804.53;;;-142.75;100.00
41632;BME280;37452;51.938;4.624;2022-10-16T06:29:57;76806.50;;;-142.75;100.00
41632;BME280;37452;51.938;4.624;2022-10-16T06:32:22;76788.81;;;-142.75;100.00
41632;BME280;37452;51.938;4.624;2022-10-16T06:34:47;76790.78;;;-142.75;100.00
41632;BME280;37452;51.938;4.624;2022-10-16T06:37:12;76786.84;;;-142.75;100.00
41632;BME280;37452;51.938;4.624;2022-10-16T06:39:38;76784.88;;;-142.75;100.00
41632;BME280;37452;51.938;4.624;2022-10-16T06:42:03;76792.75;;;-142.75;100.00
41632;BME280;37452;51.938;4.624;2022-10-16T06:44:29;76790.78;;;-142.75;100.00
41632;BME280;37452;51.938;4.624;2022-10-16T06:46:54;76786.84;;;-142.75;100.00
41632;BME280;37452;51.938;4.624;2022-10-16T06:49:19;76790.78;;;-142.75;100.00
41632;BME280;37452;51.938;4.624;2022-10-16T06:51:47;76800.63;;;-142.75;100.00
41632;BME280;37452;51.938;4.624;2022-10-16T06:54:12;76802.56;;;-142.75;100.00
41632;BME280;37452;51.938;4.624;2022-10-16T06:56:38;76816.34;;;-142.75;100.00
41632;BME280;37452;51.938;4.624;2022-10-16T06:59:03;76806.50;;;-142.75;100.00
41632;BME280;37452;51.938;4.624;2022-10-16T07:01:28;76808.50;;;-142.75;100.00
41632;BME280;37452;51.938;4.624;2022-10-16T07:03:54;76818.31;;;-142.75;100.00
41632;BME280;37452;51.938;4.624;2022-10-16T07:06:20;76822.25;;;-142.75;100.00
41632;BME280;37452;51.938;4.624;2022-10-16T07:08:46;76820.28;;;-142.75;100.00
41632;BME280;37452;51.938;4.624;2022-10-16T07:11:12;76828.16;;;-142.75;100.00
41632;BME280;37452;51.938;4.624;2022-10-16T07:13:39;76824.22;;;-142.75;100.00
41632;BME280;37452;51.938;4.624;2022-10-16T07:16:08;76830.13;;;-142.75;100.00
41632;BME280;37452;51.938;4.624;2022-10-16T07:18:33;76788.81;;;-142.75;100.00
41632;BME280;37452;51.938;4.624;2022-10-16T07:21:12;76761.25;;;-142.75;100.00
41632;BME280;37452;51.938;4.624;2022-10-16T07:23:38;76727.78;;;-142.75;100.00
41632;BME280;37452;51.938;4.624;2022-10-16T07:26:03;76688.41;;;-142.75;100.00
41632;BME280;37452;51.938;4.624;2022-10-16T07:28:28;76680.53;;;-142.75;100.00
41632;BME280;37452;51.938;4.624;2022-10-16T07:30:54;76641.16;;;-142.75;100.00
41632;BME280;37452;51.938;4.624;2022-10-16T07:33:19;76607.69;;;-142.75;100.00
41632;BME280;37452;51.938;4.624;2022-10-16T07:35:51;76611.63;;;-142.75;100.00
41632;BME280;37452;51.938;4.624;2022-10-16T07:38:17;76574.22;;;-142.75;100.00
41632;BME280;37452;51.938;4.624;2022-10-16T07:40:42;76562.41;;;-142.75;100.00
41632;BME280;37452;51.938;4.624;2022-10-16T07:43:07;76528.97;;;-142.75;100.00
41632;BME280;37452;51.938;4.624;2022-10-16T07:45:32;76505.34;;;-142.75;100.00
41632;BME280;37452;51.938;4.624;2022-10-16T07:47:57;76481.72;;;-142.75;100.00
41632;BME280;37452;51.938;4.624;2022-10-16T07:50:23;76448.25;;;-142.75;100.00
41632;BME280;37452;51.938;4.624;2022-10-16T07:52:48;76462.03;;;-142.75;100.00
41632;BME280;37452;51.938;4.624;2022-10-16T07:55:13;76503.38;;;-142.75;100.00
41632;BME280;37452;51.938;4.624;2022-10-16T07:57:38;76462.03;;;-142.75;100.00
41632;BME280;37452;51.938;4.624;2022-10-16T08:00:04;76444.31;;;-142.75;100.00
41632;BME280;37452;51.938;4.624;2022-10-16T08:02:29;76430.53;;;-142.75;100.00
41632;BME280;37452;51.938;4.624;2022-10-16T08:04:55;76422.66;;;-142.75;100.00
41632;BME280;37452;51.938;4.624;2022-10-16T08:07:20;76402.97;;;-142.75;100.00
41632;BME280;37452;51.938;4.624;2022-10-16T08:09:48;76401.00;;;-142.75;100.00
41632;BME280;37452;51.938;4.624;2022-10-16T08:12:13;76357.69;;;-142.75;100.00
41632;BME280;37452;51.938;4.624;2022-10-16T08:14:39;76377.38;;;-142.75;100.00
41632;BME280;37452;51.938;4.624;2022-10-16T08:17:04;76330.16;;;-142.75;100.00
41632;BME280;37452;51.938;4.624;2022-10-16T08:19:29;76302.59;;;-142.75;100.00
41632;BME280;37452;51.938;4.624;2022-10-16T08:21:56;76290.78;;;-142.75;100.00
41632;BME280;37452;51.938;4.624;2022-10-16T08:24:21;76267.16;;;-142.75;100.00
41632;BME280;37452;51.938;4.624;2022-10-16T08:26:46;76235.66;;;-142.75;100.00
41632;BME280;37452;51.938;4.624;2022-10-16T08:29:13;76227.78;;;-142.75;100.00
41632;BME280;37452;51.938;4.624;2022-10-16T08:31:38;76247.47;;;-142.75;100.00
41632;BME280;37452;51.938;4.624;2022-10-16T08:34:03;76249.44;;;-142.75;100.00
41632;BME280;37452;51.938;4.624;2022-10-16T08:36:28;76251.41;;;-142.75;100.00
41632;BME280;37452;51.938;4.624;2022-10-16T08:38:53;76255.34;;;-142.75;100.00
41632;BME280;37452;51.938;4.624;2022-10-16T08:49:10;76231.72;;;-142.75;100.00
41632;BME280;37452;51.938;4.624;2022-10-16T08:51:36;76219.91;;;-142.75;100.00
41632;BME280;37452;51.938;4.624;2022-10-16T08:54:05;76184.50;;;-142.75;100.00
41632;BME280;37452;51.938;4.624;2022-10-16T08:56:31;76166.78;;;-142.75;100.00
41632;BME280;37452;51.938;4.624;2022-10-16T08:58:57;76156.94;;;-142.75;100.00
41632;BME280;37452;51.938;4.624;2022-10-16T09:01:23;76143.16;;;-142.75;100.00
41632;BME280;37452;51.938;4.624;2022-10-16T09:16:41;76286.84;;;-142.75;100.00
41632;BME280;37452;51.938;4.624;2022-10-16T09:19:13;76334.09;;;-142.75;100.00
41632;BME280;37452;51.938;4.624;2022-10-16T09:21:42;76334.09;;;-142.75;100.00
41632;BME280;37452;51.938;4.624;2022-10-16T09:24:13;76282.91;;;-142.75;100.00
41632;BME280;37452;51.938;4.624;2022-10-16T09:26:39;76235.66;;;-142.75;100.00
41632;BME280;37452;51.938;4.624;2022-10-16T09:29:04;76247.47;;;-142.75;100.00
41632;BME280;37452;51.938;4.624;2022-10-16T09:31:29;76249.44;;;-142.75;100.00
41632;BME280;37452;51.938;4.624;2022-10-16T09:33:55;76233.69;;;-142.75;100.00
41632;BME280;37452;51.938;4.624;2022-10-16T09:36:23;76223.84;;;-142.75;100.00
41632;BME280;37452;51.938;4.624;2022-10-16T09:38:48;76192.38;;;-142.75;100.00
41632;BME280;37452;51.938;4.624;2022-10-16T09:41:19;76143.16;;;-142.75;100.00
41632;BME280;37452;51.938;4.624;2022-10-16T09:43:57;76129.38;;;-142.75;100.00
41632;BME280;37452;51.938;4.624;2022-10-16T09:46:25;76091.97;;;-142.75;100.00
41632;BME280;37452;51.938;4.624;2022-10-16T09:48:51;76082.13;;;-142.75;100.00
41632;BME280;37452;51.938;4.624;2022-10-16T09:51:20;76117.56;;;-142.75;100.00
41632;BME280;37452;51.938;4.624;2022-10-16T09:53:47;76149.06;;;-142.75;100.00
41632;BME280;37452;51.938;4.624;2022-10-16T09:56:20;76109.69;;;-142.75;100.00
41632;BME280;37452;51.938;4.624;2022-10-16T09:58:49;76135.28;;;-142.75;100.00
41632;BME280;37452;51.938;4.624;2022-10-16T10:01:15;76182.53;;;-142.75;100.00
41632;BME280;37452;51.938;4.624;2022-10-16T10:03:41;76158.91;;;-142.75;100.00
41632;BME280;37452;51.938;4.624;2022-10-16T10:06:26;76172.69;;;-142.75;100.00
41632;BME280;37452;51.938;4.624;2022-10-16T10:08:53;76131.34;;;-142.75;100.00
41632;BME280;37452;51.938;4.624;2022-10-16T10:11:35;76062.47;;;-142.75;100.00
41632;BME280;37452;51.938;4.624;2022-10-16T10:16:45;76078.19;;;-142.75;100.00
41632;BME280;37452;51.938;4.624;2022-10-16T10:21:41;76021.13;;;-142.75;100.00
41632;BME280;37452;51.938;4.624;2022-10-16T10:24:13;75989.63;;;-142.75;100.00
41632;BME280;37452;51.938;4.624;2022-10-16T10:26:41;75944.38;;;-142.75;100.00
41632;BME280;37452;51.938;4.624;2022-10-16T10:37:08;75999.47;;;-142.75;100.00
41632;BME280;37452;51.938;4.624;2022-10-16T10:39:40;75956.19;;;-142.75;100.00
41632;BME280;37452;51.938;4.624;2022-10-16T10:47:42;75849.91;;;-142.75;100.00
41632;BME280;37452;51.938;4.624;2022-10-16T10:52:57;75798.72;;;-142.75;100.00
41632;BME280;37452;51.938;4.624;2022-10-16T10:58:31;75765.25;;;-142.75;100.00
41632;BME280;37452;51.938;4.624;2022-10-16T11:06:06;75816.44;;;-142.75;100.00
41632;BME280;37452;51.938;4.624;2022-10-16T11:13:24;75950.28;;;-142.75;100.00
41632;BME280;37452;51.938;4.624;2022-10-16T11:15:52;75960.13;;;-142.75;100.00
41632;BME280;37452;51.938;4.624;2022-10-16T11:18:20;75940.44;;;-142.75;100.00
41632;BME280;37452;51.938;4.624;2022-10-16T11:20:54;75942.41;;;-142.75;100.00
41632;BME280;37452;51.938;4.624;2022-10-16T11:23:23;75928.63;;;-142.75;99.43
41632;BME280;37452;51.938;4.624;2022-10-16T11:25:50;75863.66;;;-142.75;100.00
41632;BME280;37452;51.938;4.624;2022-10-16T11:28:20;75842.03;;;-142.75;96.10
41632;BME280;37452;51.938;4.624;2022-10-16T11:30:54;75786.91;;;-142.75;90.33
41632;BME280;37452;51.938;4.624;2022-10-16T11:33:33;75818.41;;;-142.75;90.33
41632;BME280;37452;51.938;4.624;2022-10-16T11:38:38;75818.41;;;-142.75;91.85
41632;BME280;37452;51.938;4.624;2022-10-16T11:43:36;75865.63;;;-142.75;83.93
41632;BME280;37452;51.938;4.624;2022-10-16T11:46:17;75901.06;;;-142.75;91.78
41632;BME280;37452;51.938;4.624;2022-10-16T11:48:51;75938.47;;;-142.75;94.54
41632;BME280;37452;51.938;4.624;2022-10-16T11:51:39;75971.91;;;-142.75;92.98
41632;BME280;37452;51.938;4.624;2022-10-16T11:54:22;75928.63;;;-142.75;94.91
41632;BME280;37452;51.938;4.624;2022-10-16T11:56:52;75908.94;;;-142.75;92.83
41632;BME280;37452;51.938;4.624;2022-10-16T12:01:52;75893.19;;;-142.75;86.80
41632;BME280;37452;51.938;4.624;2022-10-16T12:07:04;75881.38;;;-142.75;86.09
41632;BME280;37452;51.938;4.624;2022-10-16T12:09:32;75869.56;;;-142.75;83.78
41632;BME280;37452;51.938;4.624;2022-10-16T12:11:59;75853.84;;;-142.75;82.18
41632;BME280;37452;51.938;4.624;2022-10-16T12:16:53;75855.81;;;-142.75;78.82
41632;BME280;37452;51.938;4.624;2022-10-16T12:19:19;75916.81;;;-142.75;80.57
41632;BME280;37452;51.938;4.624;2022-10-16T12:21:45;75932.56;;;-142.75;79.54
41632;BME280;37452;51.938;4.624;2022-10-16T12:26:54;75918.78;;;-142.75;79.06
41632;BME280;37452;51.938;4.624;2022-10-16T12:31:51;75960.13;;;-142.75;79.14
41632;BME280;37452;51.938;4.624;2022-10-16T12:34:29;75993.56;;;-142.75;83.48
41632;BME280;37452;51.938;4.624;2022-10-16T12:37:07;76064.44;;;-142.75;83.66
41632;BME280;37452;51.938;4.624;2022-10-16T12:39:33;76091.97;;;-142.75;87.79
41632;BME280;37452;51.938;4.624;2022-10-16T12:42:04;76058.53;;;-142.75;89.60
41632;BME280;37452;51.938;4.624;2022-10-16T12:44:33;76080.16;;;-142.75;89.05
41632;BME280;37452;51.938;4.624;2022-10-16T12:46:59;76054.59;;;-142.75;90.95
41632;BME280;37452;51.938;4.624;2022-10-16T12:49:31;76054.59;;;-142.75;93.80
41632;BME280;37452;51.938;4.624;2022-10-16T12:51:57;76062.47;;;-142.75;93.83
41632;BME280;37452;51.938;4.624;2022-10-16T12:54:25;76038.84;;;-142.75;97.84
41632;BME280;37452;51.938;4.624;2022-10-16T13:01:59;76105.75;;;-142.75;100.00
41632;BME280;37452;51.938;4.624;2022-10-16T13:04:34;76119.53;;;-142.75;98.85
41632;BME280;37452;51.938;4.624;2022-10-16T13:12:40;76221.88;;;-142.75;100.00
41632;BME280;37452;51.938;4.624;2022-10-16T13:22:57;76300.63;;;-142.75;100.00
41632;BME280;37452;51.938;4.624;2022-10-16T13:25:28;76306.53;;;-142.75;100.00
41632;BME280;37452;51.938;4.624;2022-10-16T13:27:58;76345.91;;;-142.75;100.00
41632;BME280;37452;51.938;4.624;2022-10-16T13:30:28;76340.00;;;-142.75;100.00
41632;BME280;37452;51.938;4.624;2022-10-16T13:35:32;76312.44;;;-142.75;100.00
41632;BME280;37452;51.938;4.624;2022-10-16T13:40:35;76347.84;;;-142.75;100.00
41632;BME280;37452;51.938;4.624;2022-10-16T13:43:01;76355.72;;;-142.75;100.00
41632;BME280;37452;51.938;4.624;2022-10-16T13:45:26;76381.31;;;-142.75;100.00
41632;BME280;37452;51.938;4.624;2022-10-16T13:48:02;76373.44;;;-142.75;100.00
41632;BME280;37452;51.938;4.624;2022-10-16T13:50:27;76373.44;;;-142.75;100.00
41632;BME280;37452;51.938;4.624;2022-10-16T13:53:02;76379.34;;;-142.75;100.00
41632;BME280;37452;51.938;4.624;2022-10-16T13:55:28;76389.19;;;-142.75;100.00
41632;BME280;37452;51.938;4.624;2022-10-16T13:57:53;76381.31;;;-142.75;100.00
41632;BME280;37452;51.938;4.624;2022-10-16T14:00:29;76391.16;;;-142.75;100.00
41632;BME280;37452;51.938;4.624;2022-10-16T14:03:02;76369.50;;;-142.75;100.00
41632;BME280;37452;51.938;4.624;2022-10-16T14:05:28;76375.41;;;-142.75;100.00
41632;BME280;37452;51.938;4.624;2022-10-16T14:07:53;76377.38;;;-142.75;100.00
41632;BME280;37452;51.938;4.624;2022-10-16T14:12:54;76381.31;;;-142.75;100.00
41632;BME280;37452;51.938;4.624;2022-10-16T14:15:19;76391.16;;;-142.75;100.00
41632;BME280;37452;51.938;4.624;2022-10-16T14:17:45;76393.13;;;-142.75;100.00
41632;BME280;37452;51.938;4.624;2022-10-16T14:20:14;76401.00;;;-142.75;100.00
41632;BME280;37452;51.938;4.624;2022-10-16T14:22:40;76416.75;;;-142.75;100.00